Terminal Aerodrome Forecast
Issued by NWS

Home | Current Version | Previous Version | Text Only | Print | Product List | Glossary On
Versions: 1 2 3 4 5 6 7 8 9 10 11 12 13 14 15
000
FTUS46 KLOX 040500
TAFVNY
TAF
KVNY 040532Z 0406/0506 25005KT P6SM SKC
     FM041200 VRB03KT P6SM OVC016
     FM041600 14004KT P6SM BKN021
     FM041800 16010KT P6SM SCT026 SCT050
     FM050400 VRB05KT P6SM BKN020=

USA.gov is the U.S. government's official web portal to all federal, state and local government web resources and services.